< < Back
Terminal Aerodrome Forecast


Current Version              Previous Versions:   1  2  3  4  5  6  7  8  9  

Terminal Aerodrome Forecast

977
FTUS42 KILM 282200 AAA
TAFFLO
TAF AMD
KFLO 282256Z 2823/2918 28011G18KT P6SM SCT040 BKN200
     FM290100 31008KT P6SM BKN040 BKN250
     FM290600 01007KT P6SM SCT040
     FM291300 04010KT P6SM FEW040=



Latest METAR

477
SAUS70 KWBC 292200 RRQ
MTRFLO
METAR KFLO 292153Z 35005KT 10SM BKN100 30/16 A2991 RMK AO2 SLP126
T03000156


USA.gov is the U.S. government's official web portal to all federal, state and local government web resources and services.